sensor_id;sensor_type;location;lat;lon;timestamp;pressure;altitude;pressure_sealevel;temperature;humidity
3254;BME280;1639;42.804;23.342;2022-07-10T00:01:51;72606.22;;;-148.52;100.00
3254;BME280;1639;42.804;23.342;2022-07-10T00:04:17;72593.81;;;-148.52;100.00
3254;BME280;1639;42.804;23.342;2022-07-10T00:06:44;72581.41;;;-148.52;99.57
3254;BME280;1639;42.804;23.342;2022-07-10T00:09:14;72595.88;;;-148.52;100.00
3254;BME280;1639;42.804;23.342;2022-07-10T00:11:41;72587.63;;;-148.52;98.89
3254;BME280;1639;42.804;23.342;2022-07-10T00:14:07;72600.03;;;-148.52;99.31
3254;BME280;1639;42.804;23.342;2022-07-10T00:16:32;72602.09;;;-148.52;99.83
3254;BME280;1639;42.804;23.342;2022-07-10T00:18:57;72608.28;;;-148.52;100.00
3254;BME280;1639;42.804;23.342;2022-07-10T00:21:23;72600.03;;;-148.52;100.00
3254;BME280;1639;42.804;23.342;2022-07-10T00:23:48;72595.88;;;-148.52;100.00
3254;BME280;1639;42.804;23.342;2022-07-10T00:26:14;72597.97;;;-148.52;99.80
3254;BME280;1639;42.804;23.342;2022-07-10T00:28:39;72589.69;;;-148.52;99.38
3254;BME280;1639;42.804;23.342;2022-07-10T00:31:05;72589.69;;;-148.52;99.62
3254;BME280;1639;42.804;23.342;2022-07-10T00:33:30;72604.16;;;-148.52;100.00
3254;BME280;1639;42.804;23.342;2022-07-10T00:35:58;72597.97;;;-148.52;100.00
3254;BME280;1639;42.804;23.342;2022-07-10T00:38:23;72593.81;;;-148.52;100.00
3254;BME280;1639;42.804;23.342;2022-07-10T00:40:49;72581.41;;;-148.52;100.00
3254;BME280;1639;42.804;23.342;2022-07-10T00:43:14;72597.97;;;-148.52;98.35
3254;BME280;1639;42.804;23.342;2022-07-10T00:45:40;72587.63;;;-148.52;98.87
3254;BME280;1639;42.804;23.342;2022-07-10T00:48:05;72579.34;;;-148.52;99.20
3254;BME280;1639;42.804;23.342;2022-07-10T00:50:31;72579.34;;;-148.52;97.65
3254;BME280;1639;42.804;23.342;2022-07-10T00:52:58;72602.09;;;-148.52;98.42
3254;BME280;1639;42.804;23.342;2022-07-10T00:55:24;72618.63;;;-148.52;99.37
3254;BME280;1639;42.804;23.342;2022-07-10T00:57:50;72633.13;;;-148.52;99.92
3254;BME280;1639;42.804;23.342;2022-07-10T01:00:15;72631.03;;;-148.52;100.00
3254;BME280;1639;42.804;23.342;2022-07-10T01:02:42;72622.78;;;-148.52;100.00
3254;BME280;1639;42.804;23.342;2022-07-10T01:05:08;72633.13;;;-148.52;100.00
3254;BME280;1639;42.804;23.342;2022-07-10T01:07:34;72631.03;;;-148.52;100.00
3254;BME280;1639;42.804;23.342;2022-07-10T01:09:59;72635.19;;;-148.52;99.83
3254;BME280;1639;42.804;23.342;2022-07-10T01:12:27;72628.97;;;-148.52;98.58
3254;BME280;1639;42.804;23.342;2022-07-10T01:14:54;72631.03;;;-148.52;99.40
3254;BME280;1639;42.804;23.342;2022-07-10T01:17:19;72633.13;;;-148.52;99.64
3254;BME280;1639;42.804;23.342;2022-07-10T01:19:45;72645.53;;;-148.52;100.00
3254;BME280;1639;42.804;23.342;2022-07-10T01:22:11;72628.97;;;-148.52;100.00
3254;BME280;1639;42.804;23.342;2022-07-10T01:24:36;72620.69;;;-148.52;100.00
3254;BME280;1639;42.804;23.342;2022-07-10T01:27:02;72608.28;;;-148.52;100.00
3254;BME280;1639;42.804;23.342;2022-07-10T01:29:28;72597.97;;;-148.52;100.00
3254;BME280;1639;42.804;23.342;2022-07-10T01:31:54;72600.03;;;-148.52;98.51
3254;BME280;1639;42.804;23.342;2022-07-10T01:34:19;72614.50;;;-148.52;99.34
3254;BME280;1639;42.804;23.342;2022-07-10T01:36:45;72626.91;;;-148.52;99.95
3254;BME280;1639;42.804;23.342;2022-07-10T01:39:11;72614.50;;;-148.52;100.00
3254;BME280;1639;42.804;23.342;2022-07-10T01:41:36;72616.56;;;-148.52;100.00
3254;BME280;1639;42.804;23.342;2022-07-10T01:44:02;72620.69;;;-148.52;100.00
3254;BME280;1639;42.804;23.342;2022-07-10T01:46:27;72604.16;;;-148.52;100.00
3254;BME280;1639;42.804;23.342;2022-07-10T01:48:53;72604.16;;;-148.52;100.00
3254;BME280;1639;42.804;23.342;2022-07-10T01:51:19;72600.03;;;-148.52;99.74
3254;BME280;1639;42.804;23.342;2022-07-10T01:53:45;72604.16;;;-148.52;98.30
3254;BME280;1639;42.804;23.342;2022-07-10T01:56:12;72610.38;;;-148.52;98.27
3254;BME280;1639;42.804;23.342;2022-07-10T01:58:38;72647.59;;;-148.52;99.42
3254;BME280;1639;42.804;23.342;2022-07-10T02:01:04;72641.38;;;-148.52;100.00
3254;BME280;1639;42.804;23.342;2022-07-10T02:03:30;72647.59;;;-148.52;100.00
3254;BME280;1639;42.804;23.342;2022-07-10T02:06:14;72643.44;;;-148.52;100.00
3254;BME280;1639;42.804;23.342;2022-07-10T02:08:40;72618.63;;;-148.52;100.00
3254;BME280;1639;42.804;23.342;2022-07-10T02:11:05;72639.31;;;-148.52;99.08
3254;BME280;1639;42.804;23.342;2022-07-10T02:13:31;72643.44;;;-148.52;100.00
3254;BME280;1639;42.804;23.342;2022-07-10T02:15:57;72637.25;;;-148.52;100.00
3254;BME280;1639;42.804;23.342;2022-07-10T02:18:22;72612.44;;;-148.52;99.55
3254;BME280;1639;42.804;23.342;2022-07-10T02:20:48;72616.56;;;-148.52;98.71
3254;BME280;1639;42.804;23.342;2022-07-10T02:23:14;72626.91;;;-148.52;99.62
3254;BME280;1639;42.804;23.342;2022-07-10T02:25:39;72628.97;;;-148.52;100.00
3254;BME280;1639;42.804;23.342;2022-07-10T02:28:05;72622.78;;;-148.52;100.00
3254;BME280;1639;42.804;23.342;2022-07-10T02:30:31;72614.50;;;-148.52;100.00
3254;BME280;1639;42.804;23.342;2022-07-10T02:32:57;72618.63;;;-148.52;100.00
3254;BME280;1639;42.804;23.342;2022-07-10T02:35:22;72610.38;;;-148.52;100.00
3254;BME280;1639;42.804;23.342;2022-07-10T02:37:48;72610.38;;;-148.52;100.00
3254;BME280;1639;42.804;23.342;2022-07-10T02:40:13;72637.25;;;-148.52;99.38
3254;BME280;1639;42.804;23.342;2022-07-10T02:42:38;72643.44;;;-148.52;99.96
3254;BME280;1639;42.804;23.342;2022-07-10T02:45:05;72655.84;;;-148.52;100.00
3254;BME280;1639;42.804;23.342;2022-07-10T02:47:31;72649.66;;;-148.52;99.84
3254;BME280;1639;42.804;23.342;2022-07-10T02:49:57;72666.19;;;-148.52;99.20
3254;BME280;1639;42.804;23.342;2022-07-10T02:52:22;72674.47;;;-148.52;98.87
3254;BME280;1639;42.804;23.342;2022-07-10T02:54:48;72695.16;;;-148.52;99.40
3254;BME280;1639;42.804;23.342;2022-07-10T02:57:13;72691.00;;;-148.52;100.00
3254;BME280;1639;42.804;23.342;2022-07-10T02:59:38;72699.28;;;-148.52;99.18
3254;BME280;1639;42.804;23.342;2022-07-10T03:02:04;72715.84;;;-148.52;98.97
3254;BME280;1639;42.804;23.342;2022-07-10T03:04:30;72726.19;;;-148.52;99.52
3254;BME280;1639;42.804;23.342;2022-07-10T03:06:55;72728.25;;;-148.52;99.66
3254;BME280;1639;42.804;23.342;2022-07-10T03:09:21;72724.09;;;-148.52;100.00
3254;BME280;1639;42.804;23.342;2022-07-10T03:11:46;72724.09;;;-148.52;100.00
3254;BME280;1639;42.804;23.342;2022-07-10T03:14:11;72744.78;;;-148.52;100.00
3254;BME280;1639;42.804;23.342;2022-07-10T03:16:37;72757.19;;;-148.52;100.00
3254;BME280;1639;42.804;23.342;2022-07-10T03:19:02;72763.41;;;-148.52;100.00
3254;BME280;1639;42.804;23.342;2022-07-10T03:21:28;72775.81;;;-148.52;100.00
3254;BME280;1639;42.804;23.342;2022-07-10T03:23:55;72757.19;;;-148.52;100.00
3254;BME280;1639;42.804;23.342;2022-07-10T03:26:20;72759.25;;;-148.52;100.00
3254;BME280;1639;42.804;23.342;2022-07-10T03:28:46;72753.06;;;-148.52;100.00
3254;BME280;1639;42.804;23.342;2022-07-10T03:31:11;72753.06;;;-148.52;100.00
3254;BME280;1639;42.804;23.342;2022-07-10T03:33:37;72753.06;;;-148.52;100.00
3254;BME280;1639;42.804;23.342;2022-07-10T03:36:02;72740.66;;;-148.52;100.00
3254;BME280;1639;42.804;23.342;2022-07-10T03:38:28;72740.66;;;-148.52;100.00
3254;BME280;1639;42.804;23.342;2022-07-10T03:40:53;72726.19;;;-148.52;100.00
3254;BME280;1639;42.804;23.342;2022-07-10T03:43:19;72707.56;;;-148.52;100.00
3254;BME280;1639;42.804;23.342;2022-07-10T03:45:45;72703.44;;;-148.52;100.00
3254;BME280;1639;42.804;23.342;2022-07-10T03:48:10;72684.81;;;-148.52;100.00
3254;BME280;1639;42.804;23.342;2022-07-10T03:50:36;72686.88;;;-148.52;100.00
3254;BME280;1639;42.804;23.342;2022-07-10T03:53:01;72662.06;;;-148.52;100.00
3254;BME280;1639;42.804;23.342;2022-07-10T03:55:28;72655.84;;;-148.52;100.00
3254;BME280;1639;42.804;23.342;2022-07-10T03:57:53;72643.44;;;-148.52;100.00
3254;BME280;1639;42.804;23.342;2022-07-10T04:00:19;72635.19;;;-148.52;100.00
3254;BME280;1639;42.804;23.342;2022-07-10T04:02:47;72614.50;;;-148.52;100.00
3254;BME280;1639;42.804;23.342;2022-07-10T04:05:13;72602.09;;;-148.52;100.00
3254;BME280;1639;42.804;23.342;2022-07-10T04:07:38;72595.88;;;-148.52;100.00
3254;BME280;1639;42.804;23.342;2022-07-10T04:10:04;72577.28;;;-148.52;100.00
3254;BME280;1639;42.804;23.342;2022-07-10T04:12:30;72556.59;;;-148.52;100.00
3254;BME280;1639;42.804;23.342;2022-07-10T04:14:55;72542.13;;;-148.52;100.00
3254;BME280;1639;42.804;23.342;2022-07-10T04:17:21;72554.53;;;-148.52;100.00
3254;BME280;1639;42.804;23.342;2022-07-10T04:19:46;72542.13;;;-148.52;100.00
3254;BME280;1639;42.804;23.342;2022-07-10T04:22:12;72535.91;;;-148.52;100.00
3254;BME280;1639;42.804;23.342;2022-07-10T04:24:38;72513.16;;;-148.52;100.00
3254;BME280;1639;42.804;23.342;2022-07-10T04:27:03;72511.09;;;-148.52;100.00
3254;BME280;1639;42.804;23.342;2022-07-10T04:29:29;72496.63;;;-148.52;100.00
3254;BME280;1639;42.804;23.342;2022-07-10T04:31:54;72492.50;;;-148.52;100.00
3254;BME280;1639;42.804;23.342;2022-07-10T04:34:20;72490.41;;;-148.52;100.00
3254;BME280;1639;42.804;23.342;2022-07-10T04:36:45;72490.41;;;-148.52;100.00
3254;BME280;1639;42.804;23.342;2022-07-10T04:39:11;72475.94;;;-148.52;100.00
3254;BME280;1639;42.804;23.342;2022-07-10T04:41:36;72463.53;;;-148.52;100.00
3254;BME280;1639;42.804;23.342;2022-07-10T04:44:01;72444.94;;;-148.52;100.00
3254;BME280;1639;42.804;23.342;2022-07-10T04:46:27;72451.13;;;-148.52;100.00
3254;BME280;1639;42.804;23.342;2022-07-10T04:48:52;72444.94;;;-148.52;100.00
3254;BME280;1639;42.804;23.342;2022-07-10T04:51:18;72430.44;;;-148.52;100.00
3254;BME280;1639;42.804;23.342;2022-07-10T04:53:43;72409.78;;;-148.52;100.00
3254;BME280;1639;42.804;23.342;2022-07-10T04:56:09;72397.38;;;-148.52;100.00
3254;BME280;1639;42.804;23.342;2022-07-10T04:58:34;72368.41;;;-148.52;100.00
3254;BME280;1639;42.804;23.342;2022-07-10T05:01:00;72368.41;;;-148.52;100.00
3254;BME280;1639;42.804;23.342;2022-07-10T05:03:27;72368.41;;;-148.52;100.00
3254;BME280;1639;42.804;23.342;2022-07-10T05:05:52;72353.94;;;-148.52;100.00
3254;BME280;1639;42.804;23.342;2022-07-10T05:08:18;72360.13;;;-148.52;100.00
3254;BME280;1639;42.804;23.342;2022-07-10T05:10:43;72345.66;;;-148.52;100.00
3254;BME280;1639;42.804;23.342;2022-07-10T05:13:10;72351.88;;;-148.52;100.00
3254;BME280;1639;42.804;23.342;2022-07-10T05:15:36;72337.41;;;-148.52;100.00
3254;BME280;1639;42.804;23.342;2022-07-10T05:18:01;72310.50;;;-148.52;100.00
3254;BME280;1639;42.804;23.342;2022-07-10T05:20:27;72285.69;;;-148.52;100.00
3254;BME280;1639;42.804;23.342;2022-07-10T05:22:52;72285.69;;;-148.52;99.33
3254;BME280;1639;42.804;23.342;2022-07-10T05:25:18;72281.56;;;-148.52;98.97
3254;BME280;1639;42.804;23.342;2022-07-10T05:27:43;72275.34;;;-148.52;98.54
3254;BME280;1639;42.804;23.342;2022-07-10T05:30:09;72267.09;;;-148.52;98.37
3254;BME280;1639;42.804;23.342;2022-07-10T05:32:42;72258.81;;;-148.52;97.82
3254;BME280;1639;42.804;23.342;2022-07-10T05:35:08;72252.63;;;-148.52;99.09
3254;BME280;1639;42.804;23.342;2022-07-10T05:37:33;72236.06;;;-148.52;99.49
3254;BME280;1639;42.804;23.342;2022-07-10T05:39:59;72207.13;;;-148.52;98.26
3254;BME280;1639;42.804;23.342;2022-07-10T05:42:24;72182.31;;;-148.52;98.82
3254;BME280;1639;42.804;23.342;2022-07-10T05:44:49;72155.44;;;-148.52;96.27
3254;BME280;1639;42.804;23.342;2022-07-10T05:47:15;72143.03;;;-148.52;96.93
3254;BME280;1639;42.804;23.342;2022-07-10T05:49:40;72122.34;;;-148.52;96.44
3254;BME280;1639;42.804;23.342;2022-07-10T05:52:06;72091.31;;;-148.52;95.63
3254;BME280;1639;42.804;23.342;2022-07-10T05:54:31;72070.66;;;-148.52;93.63
3254;BME280;1639;42.804;23.342;2022-07-10T05:56:57;72054.09;;;-148.52;94.14
3254;BME280;1639;42.804;23.342;2022-07-10T05:59:23;72049.97;;;-148.52;92.85
3254;BME280;1639;42.804;23.342;2022-07-10T06:01:48;72033.44;;;-148.52;92.68
3254;BME280;1639;42.804;23.342;2022-07-10T06:04:14;72014.81;;;-148.52;91.20
3254;BME280;1639;42.804;23.342;2022-07-10T06:06:39;72000.34;;;-148.52;90.74
3254;BME280;1639;42.804;23.342;2022-07-10T06:09:04;71967.25;;;-148.52;89.92
3254;BME280;1639;42.804;23.342;2022-07-10T06:11:30;71936.25;;;-148.52;91.45
3254;BME280;1639;42.804;23.342;2022-07-10T06:13:55;71925.91;;;-148.52;88.25
3254;BME280;1639;42.804;23.342;2022-07-10T06:16:22;71907.31;;;-148.52;89.85
3254;BME280;1639;42.804;23.342;2022-07-10T06:18:47;71907.31;;;-148.52;87.93
3254;BME280;1639;42.804;23.342;2022-07-10T06:21:12;71876.28;;;-148.52;88.94
3254;BME280;1639;42.804;23.342;2022-07-10T06:23:38;71830.81;;;-148.52;86.49
3254;BME280;1639;42.804;23.342;2022-07-10T06:26:03;71789.44;;;-148.52;85.32
3254;BME280;1639;42.804;23.342;2022-07-10T06:28:29;71764.63;;;-148.52;82.47
3254;BME280;1639;42.804;23.342;2022-07-10T06:30:54;71733.63;;;-148.52;82.89
3254;BME280;1639;42.804;23.342;2022-07-10T06:33:19;71702.59;;;-148.52;80.00
3254;BME280;1639;42.804;23.342;2022-07-10T06:35:45;71661.25;;;-148.52;78.73
3254;BME280;1639;42.804;23.342;2022-07-10T06:38:10;71621.97;;;-148.52;80.47
3254;BME280;1639;42.804;23.342;2022-07-10T06:40:37;71624.03;;;-148.52;75.99
3254;BME280;1639;42.804;23.342;2022-07-10T06:43:02;71630.25;;;-148.52;75.87
3254;BME280;1639;42.804;23.342;2022-07-10T06:45:28;71599.22;;;-148.52;76.78
3254;BME280;1639;42.804;23.342;2022-07-10T06:47:54;71570.28;;;-148.52;73.30
3254;BME280;1639;42.804;23.342;2022-07-10T06:50:30;71535.13;;;-148.52;73.51
3254;BME280;1639;42.804;23.342;2022-07-10T06:53:00;71553.75;;;-148.52;73.54
3254;BME280;1639;42.804;23.342;2022-07-10T06:55:26;71580.63;;;-148.52;73.05
3254;BME280;1639;42.804;23.342;2022-07-10T06:57:52;71609.56;;;-148.52;74.12
3254;BME280;1639;42.804;23.342;2022-07-10T07:00:17;71615.78;;;-148.52;73.67
3254;BME280;1639;42.804;23.342;2022-07-10T07:02:43;71619.91;;;-148.52;75.11
3254;BME280;1639;42.804;23.342;2022-07-10T07:05:08;71615.78;;;-148.52;74.96
3254;BME280;1639;42.804;23.342;2022-07-10T07:07:34;71619.91;;;-148.52;74.90
3254;BME280;1639;42.804;23.342;2022-07-10T07:10:00;71615.78;;;-148.52;75.62
3254;BME280;1639;42.804;23.342;2022-07-10T07:12:26;71586.81;;;-148.52;74.33
3254;BME280;1639;42.804;23.342;2022-07-10T07:14:51;71518.59;;;-148.52;75.52
3254;BME280;1639;42.804;23.342;2022-07-10T07:17:17;71500.00;;;-148.52;71.81
3254;BME280;1639;42.804;23.342;2022-07-10T07:19:51;71473.13;;;-148.52;71.00
3254;BME280;1639;42.804;23.342;2022-07-10T07:22:35;71458.66;;;-148.52;69.50
3254;BME280;1639;42.804;23.342;2022-07-10T07:25:19;71475.19;;;-148.52;70.44
3254;BME280;1639;42.804;23.342;2022-07-10T07:27:45;71491.72;;;-148.52;67.93
3254;BME280;1639;42.804;23.342;2022-07-10T07:30:12;71502.06;;;-148.52;68.89
3254;BME280;1639;42.804;23.342;2022-07-10T07:32:42;71458.66;;;-148.52;68.44
3254;BME280;1639;42.804;23.342;2022-07-10T07:35:09;71413.16;;;-148.52;66.71
3254;BME280;1639;42.804;23.342;2022-07-10T07:40:05;71384.22;;;-148.52;58.80
3254;BME280;1639;42.804;23.342;2022-07-10T07:42:31;71454.50;;;-148.52;55.77
3254;BME280;1639;42.804;23.342;2022-07-10T07:44:56;71421.44;;;-148.52;54.60
3254;BME280;1639;42.804;23.342;2022-07-10T07:47:22;71361.47;;;-148.52;53.40
3254;BME280;1639;42.804;23.342;2022-07-10T07:49:47;71361.47;;;-148.52;54.28
3254;BME280;1639;42.804;23.342;2022-07-10T07:52:12;71355.28;;;-148.52;51.86
3254;BME280;1639;42.804;23.342;2022-07-10T07:54:39;71371.81;;;-148.52;49.94
3254;BME280;1639;42.804;23.342;2022-07-10T07:57:04;71375.94;;;-148.52;51.31
3254;BME280;1639;42.804;23.342;2022-07-10T07:59:30;71386.28;;;-148.52;49.85
3254;BME280;1639;42.804;23.342;2022-07-10T08:01:55;71394.56;;;-148.52;51.47
3254;BME280;1639;42.804;23.342;2022-07-10T08:04:21;71400.75;;;-148.52;51.84
3254;BME280;1639;42.804;23.342;2022-07-10T08:06:46;71375.94;;;-148.52;51.64
3254;BME280;1639;42.804;23.342;2022-07-10T08:09:12;71305.66;;;-148.52;50.27
3254;BME280;1639;42.804;23.342;2022-07-10T08:11:37;71247.78;;;-148.52;49.07
3254;BME280;1639;42.804;23.342;2022-07-10T08:14:02;71249.84;;;-148.52;48.29
3254;BME280;1639;42.804;23.342;2022-07-10T08:16:28;71237.44;;;-148.52;48.15
3254;BME280;1639;42.804;23.342;2022-07-10T08:18:54;71284.97;;;-148.52;46.93
3254;BME280;1639;42.804;23.342;2022-07-10T08:21:19;71326.34;;;-148.52;47.46
3254;BME280;1639;42.804;23.342;2022-07-10T08:23:45;71336.66;;;-148.52;48.44
3254;BME280;1639;42.804;23.342;2022-07-10T08:26:11;71353.22;;;-148.52;49.06
3254;BME280;1639;42.804;23.342;2022-07-10T08:28:36;71363.53;;;-148.52;50.03
3254;BME280;1639;42.804;23.342;2022-07-10T08:31:01;71336.66;;;-148.52;49.78
3254;BME280;1639;42.804;23.342;2022-07-10T08:33:27;71361.47;;;-148.52;49.51
3254;BME280;1639;42.804;23.342;2022-07-10T08:35:53;71351.13;;;-148.52;49.08
3254;BME280;1639;42.804;23.342;2022-07-10T08:38:18;71357.34;;;-148.52;48.15
3254;BME280;1639;42.804;23.342;2022-07-10T08:40:44;71355.28;;;-148.52;48.77
3254;BME280;1639;42.804;23.342;2022-07-10T08:43:11;71311.84;;;-148.52;48.71
3254;BME280;1639;42.804;23.342;2022-07-10T08:45:36;71229.16;;;-148.52;47.34
3254;BME280;1639;42.804;23.342;2022-07-10T08:48:03;71189.88;;;-148.52;45.79
3254;BME280;1639;42.804;23.342;2022-07-10T08:50:33;71173.34;;;-148.52;45.46
3254;BME280;1639;42.804;23.342;2022-07-10T08:55:26;71204.38;;;-148.52;45.70
3254;BME280;1639;42.804;23.342;2022-07-10T08:57:53;71206.44;;;-148.52;45.27
3254;BME280;1639;42.804;23.342;2022-07-10T09:00:20;71214.69;;;-148.52;45.34
3254;BME280;1639;42.804;23.342;2022-07-10T09:02:45;71237.44;;;-148.52;46.03
3254;BME280;1639;42.804;23.342;2022-07-10T09:05:10;71231.22;;;-148.52;45.59
3254;BME280;1639;42.804;23.342;2022-07-10T09:07:36;71251.91;;;-148.52;46.63
3254;BME280;1639;42.804;23.342;2022-07-10T09:10:09;71262.25;;;-148.52;45.29
3254;BME280;1639;42.804;23.342;2022-07-10T09:12:53;71303.59;;;-148.52;46.67
3254;BME280;1639;42.804;23.342;2022-07-10T09:15:21;71309.78;;;-148.52;45.41
3254;BME280;1639;42.804;23.342;2022-07-10T09:17:52;71359.41;;;-148.52;45.81
3254;BME280;1639;42.804;23.342;2022-07-10T09:22:57;71371.81;;;-148.52;48.66
3254;BME280;1639;42.804;23.342;2022-07-10T09:25:29;71342.88;;;-148.52;47.13
3254;BME280;1639;42.804;23.342;2022-07-10T09:27:56;71280.84;;;-148.52;47.28
3254;BME280;1639;42.804;23.342;2022-07-10T09:30:34;71227.09;;;-148.52;45.59
3254;BME280;1639;42.804;23.342;2022-07-10T09:36:14;71220.91;;;-148.52;47.63
3254;BME280;1639;42.804;23.342;2022-07-10T09:41:13;71222.97;;;-148.52;43.53
3254;BME280;1639;42.804;23.342;2022-07-10T09:43:46;71237.44;;;-148.52;44.70
3254;BME280;1639;42.804;23.342;2022-07-10T09:46:12;71260.19;;;-148.52;44.49
3254;BME280;1639;42.804;23.342;2022-07-10T09:48:37;71274.66;;;-148.52;45.62
3254;BME280;1639;42.804;23.342;2022-07-10T09:51:05;71278.78;;;-148.52;43.78
3254;BME280;1639;42.804;23.342;2022-07-10T09:53:33;71309.78;;;-148.52;43.85
3254;BME280;1639;42.804;23.342;2022-07-10T09:56:00;71326.34;;;-148.52;43.68
3254;BME280;1639;42.804;23.342;2022-07-10T09:58:30;71396.63;;;-148.52;44.50
3254;BME280;1639;42.804;23.342;2022-07-10T10:00:58;71411.09;;;-148.52;44.04
3254;BME280;1639;42.804;23.342;2022-07-10T10:03:24;71421.44;;;-148.52;45.05
3254;BME280;1639;42.804;23.342;2022-07-10T10:08:29;71425.56;;;-148.52;45.10
3254;BME280;1639;42.804;23.342;2022-07-10T10:10:57;71404.91;;;-148.52;45.71
3254;BME280;1639;42.804;23.342;2022-07-10T10:13:26;71392.50;;;-148.52;45.78
3254;BME280;1639;42.804;23.342;2022-07-10T10:15:55;71378.03;;;-148.52;46.87
3254;BME280;1639;42.804;23.342;2022-07-10T10:18:23;71363.53;;;-148.52;44.60
3254;BME280;1639;42.804;23.342;2022-07-10T10:20:50;71359.41;;;-148.52;42.97
3254;BME280;1639;42.804;23.342;2022-07-10T10:23:18;71357.34;;;-148.52;43.72
3254;BME280;1639;42.804;23.342;2022-07-10T10:25:45;71361.47;;;-148.52;43.55
3254;BME280;1639;42.804;23.342;2022-07-10T10:28:13;71367.69;;;-148.52;44.49
3254;BME280;1639;42.804;23.342;2022-07-10T10:30:43;71394.56;;;-148.52;44.27
3254;BME280;1639;42.804;23.342;2022-07-10T10:36:07;71386.28;;;-148.52;43.20
3254;BME280;1639;42.804;23.342;2022-07-10T10:41:25;71435.91;;;-148.52;44.76
3254;BME280;1639;42.804;23.342;2022-07-10T10:46:32;71431.78;;;-148.52;44.46
3254;BME280;1639;42.804;23.342;2022-07-10T10:49:05;71454.50;;;-148.52;44.70
3254;BME280;1639;42.804;23.342;2022-07-10T10:54:25;71435.91;;;-148.52;45.68
3254;BME280;1639;42.804;23.342;2022-07-10T11:00:04;71409.03;;;-148.52;45.89
3254;BME280;1639;42.804;23.342;2022-07-10T11:02:37;71442.09;;;-148.52;46.91
3254;BME280;1639;42.804;23.342;2022-07-10T11:08:02;71402.81;;;-148.52;48.13
3254;BME280;1639;42.804;23.342;2022-07-10T11:15:26;71392.50;;;-148.52;46.70
3254;BME280;1639;42.804;23.342;2022-07-10T11:17:52;71398.69;;;-148.52;45.62
3254;BME280;1639;42.804;23.342;2022-07-10T11:20:18;71415.22;;;-148.52;46.83
3254;BME280;1639;42.804;23.342;2022-07-10T11:22:52;71415.22;;;-148.52;46.38
3254;BME280;1639;42.804;23.342;2022-07-10T11:25:34;71404.91;;;-148.52;46.99
3254;BME280;1639;42.804;23.342;2022-07-10T11:28:09;71417.28;;;-148.52;47.11
3254;BME280;1639;42.804;23.342;2022-07-10T11:30:52;71437.97;;;-148.52;47.99
3254;BME280;1639;42.804;23.342;2022-07-10T11:33:18;71421.44;;;-148.52;48.58
3254;BME280;1639;42.804;23.342;2022-07-10T11:35:47;71396.63;;;-148.52;48.32
3254;BME280;1639;42.804;23.342;2022-07-10T11:38:18;71375.94;;;-148.52;47.79
3254;BME280;1639;42.804;23.342;2022-07-10T11:40:44;71369.75;;;-148.52;46.85
3254;BME280;1639;42.804;23.342;2022-07-10T11:43:09;71375.94;;;-148.52;47.38
3254;BME280;1639;42.804;23.342;2022-07-10T11:45:42;71386.28;;;-148.52;47.60
3254;BME280;1639;42.804;23.342;2022-07-10T11:48:16;71373.88;;;-148.52;48.44
3254;BME280;1639;42.804;23.342;2022-07-10T11:50:42;71367.69;;;-148.52;47.84
3254;BME280;1639;42.804;23.342;2022-07-10T11:53:07;71363.53;;;-148.52;46.02
3254;BME280;1639;42.804;23.342;2022-07-10T11:55:33;71373.88;;;-148.52;46.09
3254;BME280;1639;42.804;23.342;2022-07-10T11:58:13;71371.81;;;-148.52;47.25
3254;BME280;1639;42.804;23.342;2022-07-10T12:00:38;71380.09;;;-148.52;47.42
3254;BME280;1639;42.804;23.342;2022-07-10T12:03:20;71380.09;;;-148.52;47.12
3254;BME280;1639;42.804;23.342;2022-07-10T12:05:46;71386.28;;;-148.52;46.51
3254;BME280;1639;42.804;23.342;2022-07-10T12:08:13;71380.09;;;-148.52;47.29
3254;BME280;1639;42.804;23.342;2022-07-10T12:10:39;71388.34;;;-148.52;47.69
3254;BME280;1639;42.804;23.342;2022-07-10T12:13:12;71400.75;;;-148.52;47.32
3254;BME280;1639;42.804;23.342;2022-07-10T12:15:39;71396.63;;;-148.52;47.32
3254;BME280;1639;42.804;23.342;2022-07-10T12:18:09;71398.69;;;-148.52;47.36
3254;BME280;1639;42.804;23.342;2022-07-10T12:20:40;71411.09;;;-148.52;47.83
3254;BME280;1639;42.804;23.342;2022-07-10T12:23:11;71419.38;;;-148.52;48.70
3254;BME280;1639;42.804;23.342;2022-07-10T12:25:38;71413.16;;;-148.52;48.27
3254;BME280;1639;42.804;23.342;2022-07-10T12:28:03;71444.19;;;-148.52;48.70
3254;BME280;1639;42.804;23.342;2022-07-10T12:30:55;71450.38;;;-148.52;49.35
3254;BME280;1639;42.804;23.342;2022-07-10T12:33:22;71450.38;;;-148.52;50.50
3254;BME280;1639;42.804;23.342;2022-07-10T12:35:53;71462.78;;;-148.52;50.99
3254;BME280;1639;42.804;23.342;2022-07-10T12:38:28;71456.56;;;-148.52;51.35
3254;BME280;1639;42.804;23.342;2022-07-10T12:41:13;71444.19;;;-148.52;52.19
3254;BME280;1639;42.804;23.342;2022-07-10T12:43:39;71448.31;;;-148.52;52.72
3254;BME280;1639;42.804;23.342;2022-07-10T12:46:22;71448.31;;;-148.52;56.42
3254;BME280;1639;42.804;23.342;2022-07-10T12:49:08;71462.78;;;-148.52;60.45
3254;BME280;1639;42.804;23.342;2022-07-10T12:51:34;71522.72;;;-148.52;58.33
3254;BME280;1639;42.804;23.342;2022-07-10T12:54:08;71528.94;;;-148.52;60.17
3254;BME280;1639;42.804;23.342;2022-07-10T12:56:37;71487.59;;;-148.52;55.50
3254;BME280;1639;42.804;23.342;2022-07-10T12:59:13;71485.53;;;-148.52;57.28
3254;BME280;1639;42.804;23.342;2022-07-10T13:01:43;71473.13;;;-148.52;58.82
3254;BME280;1639;42.804;23.342;2022-07-10T13:04:08;71452.44;;;-148.52;51.71
3254;BME280;1639;42.804;23.342;2022-07-10T13:06:34;71423.50;;;-148.52;53.54
3254;BME280;1639;42.804;23.342;2022-07-10T13:09:02;71415.22;;;-148.52;50.71
3254;BME280;1639;42.804;23.342;2022-07-10T13:11:28;71392.50;;;-148.52;49.34
3254;BME280;1639;42.804;23.342;2022-07-10T13:13:53;71347.00;;;-148.52;50.07
3254;BME280;1639;42.804;23.342;2022-07-10T13:16:21;71289.13;;;-148.52;43.60
3254;BME280;1639;42.804;23.342;2022-07-10T13:18:46;71247.78;;;-148.52;41.12
3254;BME280;1639;42.804;23.342;2022-07-10T13:21:12;71198.16;;;-148.52;39.57
3254;BME280;1639;42.804;23.342;2022-07-10T13:23:38;71204.38;;;-148.52;38.55
3254;BME280;1639;42.804;23.342;2022-07-10T13:26:05;71212.63;;;-148.52;38.66